Time;durP1;ratioP1;P1;durP2;ratioP2;P2;SDS_P1;SDS_P2;PMS_P1;PMS_P2;Temp;Humidity;BMP_temperature;BMP_pressure;BME280_temperature;BME280_humidity;BME280_pressure;Samples;Min_cycle;Max_cycle;Signal;HPM_P1;HPM_P2
2022/08/28 00:01:36;;;;;;;9.30;8.90;;;;;;;21.23;100.00;100235.63;5074818;28;20400;-66
2022/08/28 00:04:01;;;;;;;9.57;9.18;;;;;;;21.19;100.00;100232.59;5081034;28;20054;-66
2022/08/28 00:06:27;;;;;;;10.07;9.68;;;;;;;21.15;100.00;100231.50;5093296;28;20028;-65
2022/08/28 00:08:53;;;;;;;9.57;9.18;;;;;;;21.08;100.00;100224.63;5077399;28;20036;-65
2022/08/28 00:11:19;;;;;;;9.77;9.38;;;;;;;20.98;100.00;100222.63;5073873;28;20145;-66
2022/08/28 00:13:45;;;;;;;9.57;9.18;;;;;;;20.96;100.00;100222.88;5059888;28;20121;-66
2022/08/28 00:16:11;;;;;;;9.70;9.30;;;;;;;21.02;100.00;100226.47;5073980;28;20111;-66
2022/08/28 00:18:37;;;;;;;9.50;9.10;;;;;;;20.96;100.00;100228.28;5073068;28;20046;-65
2022/08/28 00:21:02;;;;;;;9.73;9.32;;;;;;;20.87;100.00;100227.09;5054283;28;20029;-66
2022/08/28 00:23:28;;;;;;;9.57;9.18;;;;;;;20.96;100.00;100235.56;5073205;28;20790;-65
2022/08/28 00:25:54;;;;;;;10.10;9.70;;;;;;;20.83;100.00;100231.34;5086878;28;20027;-65
2022/08/28 00:28:19;;;;;;;10.30;9.80;;;;;;;20.80;100.00;100234.53;5055949;28;20033;-66
2022/08/28 00:30:51;;;;;;;10.32;9.82;;;;;;;20.72;100.00;100234.16;5086164;28;20526;-66
2022/08/28 00:33:30;;;;;;;9.85;9.45;;;;;;;20.72;100.00;100229.59;5085059;28;20560;-66
2022/08/28 00:35:56;;;;;;;10.73;10.23;;;;;;;20.68;100.00;100229.25;5089226;28;20028;-66
2022/08/28 00:38:23;;;;;;;10.07;9.65;;;;;;;20.68;100.00;100231.13;5092976;28;20032;-65
2022/08/28 00:40:51;;;;;;;10.10;9.70;;;;;;;20.66;100.00;100227.88;5091299;28;20038;-65
2022/08/28 00:43:40;;;;;;;9.80;9.40;;;;;;;20.58;100.00;100226.41;5082536;28;20629;-65
2022/08/28 00:46:13;;;;;;;10.23;9.75;;;;;;;20.56;100.00;100233.91;5072025;28;20024;-66
2022/08/28 00:48:39;;;;;;;10.00;9.60;;;;;;;20.48;100.00;100234.34;5072607;28;20028;-66
2022/08/28 00:53:51;;;;;;;10.25;9.75;;;;;;;20.44;100.00;100233.22;5093187;28;20058;-65
2022/08/28 00:56:18;;;;;;;9.80;9.40;;;;;;;20.54;100.00;100235.22;5078520;28;20396;-67
2022/08/28 00:58:46;;;;;;;9.80;9.40;;;;;;;20.49;100.00;100237.84;5085016;28;20020;-65
2022/08/28 01:01:13;;;;;;;9.70;9.30;;;;;;;20.45;100.00;100239.41;5060052;28;20511;-67
2022/08/28 01:03:39;;;;;;;9.75;9.35;;;;;;;20.37;100.00;100246.00;5078511;28;20032;-66
2022/08/28 01:06:06;;;;;;;9.77;9.38;;;;;;;20.38;100.00;100243.06;5092524;28;20027;-66
2022/08/28 01:08:34;;;;;;;9.73;9.32;;;;;;;20.43;100.00;100243.16;5092536;28;20094;-66
2022/08/28 01:11:03;;;;;;;9.60;9.20;;;;;;;20.30;100.00;100256.13;5072068;28;20025;-66
2022/08/28 01:13:29;;;;;;;9.80;9.40;;;;;;;20.34;100.00;100255.38;5081463;28;20028;-66
2022/08/28 01:15:57;;;;;;;9.40;9.00;;;;;;;20.30;100.00;100253.44;5081442;28;20024;-66
2022/08/28 01:18:24;;;;;;;9.70;9.30;;;;;;;20.29;100.00;100251.81;5076375;28;20024;-65
2022/08/28 01:21:09;;;;;;;9.70;9.30;;;;;;;20.29;100.00;100251.81;5071924;28;20036;-65
2022/08/28 01:23:54;;;;;;;9.80;9.40;;;;;;;20.31;100.00;100247.78;5072159;28;20051;-66
2022/08/28 01:26:21;;;;;;;9.43;9.02;;;;;;;20.34;100.00;100254.56;5072462;28;20016;-66
2022/08/28 01:28:47;;;;;;;9.50;9.10;;;;;;;20.30;100.00;100242.66;5071359;28;20454;-66
2022/08/28 01:31:15;;;;;;;10.10;9.65;;;;;;;20.30;100.00;100243.47;5076676;28;20020;-66
2022/08/28 01:33:42;;;;;;;9.50;9.10;;;;;;;20.25;100.00;100239.88;5090237;28;20038;-66
2022/08/28 01:36:09;;;;;;;9.30;8.90;;;;;;;20.20;100.00;100231.72;5080478;28;20483;-65
2022/08/28 01:38:36;;;;;;;9.50;9.10;;;;;;;20.23;100.00;100229.34;5090011;28;20060;-66
2022/08/28 01:41:02;;;;;;;9.80;9.40;;;;;;;20.19;100.00;100235.47;5071600;28;20063;-66
2022/08/28 01:43:27;;;;;;;9.63;9.23;;;;;;;20.10;100.00;100230.50;5086980;28;20051;-66
2022/08/28 01:45:56;;;;;;;10.07;9.63;;;;;;;20.10;100.00;100233.19;5086478;28;20801;-66
2022/08/28 01:48:24;;;;;;;9.70;9.30;;;;;;;20.02;100.00;100232.78;5077835;28;20048;-66
2022/08/28 01:50:51;;;;;;;10.38;9.88;;;;;;;19.94;100.00;100231.31;5089002;28;20020;-66
2022/08/28 01:53:19;;;;;;;9.73;9.32;;;;;;;19.93;100.00;100234.25;5081201;28;20036;-67
2022/08/28 01:55:45;;;;;;;9.80;9.40;;;;;;;19.95;100.00;100235.63;5081567;28;20044;-66
2022/08/28 01:58:12;;;;;;;9.63;9.23;;;;;;;19.99;100.00;100238.66;5071502;28;20028;-65
2022/08/28 02:00:37;;;;;;;9.57;9.18;;;;;;;19.91;100.00;100231.81;5088034;28;20067;-66
2022/08/28 02:03:03;;;;;;;9.63;9.23;;;;;;;19.85;100.00;100241.66;5061643;28;20078;-65
2022/08/28 02:05:31;;;;;;;9.40;9.00;;;;;;;19.90;100.00;100232.03;5085073;28;20040;-67
2022/08/28 02:07:59;;;;;;;9.50;9.10;;;;;;;19.86;100.00;100237.91;5077362;28;20024;-66
2022/08/28 02:10:26;;;;;;;9.63;9.23;;;;;;;19.80;100.00;100238.88;5071518;28;20033;-65
2022/08/28 02:12:54;;;;;;;9.90;9.50;;;;;;;19.78;100.00;100232.09;5085777;28;20031;-66
2022/08/28 02:15:20;;;;;;;9.63;9.23;;;;;;;19.79;100.00;100234.53;5083803;28;20054;-66
2022/08/28 02:17:46;;;;;;;9.75;9.35;;;;;;;19.67;100.00;100227.59;5084758;28;20032;-66
2022/08/28 02:20:12;;;;;;;10.20;9.70;;;;;;;19.77;100.00;100233.97;5077481;28;20048;-66
2022/08/28 02:22:37;;;;;;;9.80;9.40;;;;;;;19.80;100.00;100232.66;5078537;28;20035;-66
2022/08/28 02:25:04;;;;;;;10.40;9.90;;;;;;;19.81;100.00;100224.34;5083387;28;20044;-66
2022/08/28 02:27:30;;;;;;;10.50;10.00;;;;;;;19.75;100.00;100237.94;5073784;28;20054;-65
2022/08/28 02:29:57;;;;;;;9.93;9.52;;;;;;;19.66;100.00;100228.66;5075533;28;20035;-65
2022/08/28 02:32:24;;;;;;;9.93;9.52;;;;;;;19.70;100.00;100233.31;5089291;28;20020;-66
2022/08/28 02:34:50;;;;;;;9.60;9.20;;;;;;;19.59;100.00;100226.09;5091430;28;20073;-65
2022/08/28 02:37:15;;;;;;;9.70;9.30;;;;;;;19.59;100.00;100232.28;5087854;28;20103;-65
2022/08/28 02:39:41;;;;;;;9.70;9.30;;;;;;;19.59;100.00;100228.78;5080973;28;20101;-66
2022/08/28 02:42:06;;;;;;;9.60;9.20;;;;;;;19.66;100.00;100240.22;5057237;28;20029;-66
2022/08/28 02:44:32;;;;;;;9.90;9.50;;;;;;;19.56;100.00;100232.75;5085469;28;20036;-67
2022/08/28 02:46:58;;;;;;;9.65;9.25;;;;;;;19.44;100.00;100242.75;5088435;28;20052;-65
2022/08/28 02:49:23;;;;;;;10.00;9.60;;;;;;;19.48;100.00;100246.59;5057320;28;20024;-66
2022/08/28 02:51:55;;;;;;;9.90;9.50;;;;;;;19.45;100.00;100248.94;5060274;28;20063;-65
2022/08/28 02:54:21;;;;;;;9.65;9.25;;;;;;;19.39;100.00;100245.34;5095321;28;20487;-65
2022/08/28 02:56:46;;;;;;;9.68;9.27;;;;;;;19.29;100.00;100240.56;5093926;28;20102;-65
2022/08/28 02:59:12;;;;;;;9.50;9.10;;;;;;;19.33;100.00;100249.81;5084556;28;20032;-65
2022/08/28 03:01:38;;;;;;;9.52;9.13;;;;;;;19.32;100.00;100248.19;5086854;28;20112;-66
2022/08/28 03:04:04;;;;;;;9.50;9.10;;;;;;;19.36;100.00;100245.00;5079109;28;20182;-66
2022/08/28 03:06:30;;;;;;;9.63;9.23;;;;;;;19.33;100.00;100252.50;5095058;28;20031;-65
2022/08/28 03:08:56;;;;;;;9.73;9.32;;;;;;;19.35;100.00;100254.94;5076610;28;20029;-66
2022/08/28 03:11:22;;;;;;;9.70;9.30;;;;;;;19.36;100.00;100251.19;5082756;28;20020;-64
2022/08/28 03:13:48;;;;;;;9.77;9.38;;;;;;;19.31;100.00;100259.97;5079794;28;20032;-65
2022/08/28 03:16:14;;;;;;;9.35;8.95;;;;;;;19.30;100.00;100257.53;5087343;28;20097;-66
2022/08/28 03:18:40;;;;;;;9.93;9.52;;;;;;;19.37;100.00;100271.66;5079657;28;20406;-65
2022/08/28 03:21:06;;;;;;;9.43;9.02;;;;;;;19.30;100.00;100265.59;5080643;28;20071;-66
2022/08/28 03:23:32;;;;;;;9.82;9.43;;;;;;;19.23;100.00;100271.09;5084390;28;20024;-65
2022/08/28 03:26:12;;;;;;;9.90;9.50;;;;;;;19.18;100.00;100262.13;5082441;28;20028;-65
2022/08/28 03:28:44;;;;;;;9.48;9.07;;;;;;;19.30;100.00;100265.59;5073712;28;20103;-65
2022/08/28 03:31:14;;;;;;;9.50;9.10;;;;;;;19.43;100.00;100267.19;5080491;28;20027;-66
2022/08/28 03:33:41;;;;;;;9.73;9.32;;;;;;;19.41;100.00;100266.63;5084427;28;20035;-66
2022/08/28 03:36:11;;;;;;;9.57;9.18;;;;;;;19.51;100.00;100274.88;5056029;28;20028;-65
2022/08/28 03:38:37;;;;;;;9.70;9.30;;;;;;;19.57;100.00;100269.41;5083434;28;20032;-65
2022/08/28 03:41:02;;;;;;;9.30;8.90;;;;;;;19.65;100.00;100276.28;5089736;28;20369;-66
2022/08/28 03:43:29;;;;;;;9.30;8.90;;;;;;;19.88;100.00;100283.41;5094379;28;20545;-66
2022/08/28 03:46:03;;;;;;;9.43;9.02;;;;;;;20.13;100.00;100281.19;5083453;28;20036;-65
2022/08/28 03:48:34;;;;;;;9.30;8.90;;;;;;;20.29;100.00;100268.78;5094942;28;20123;-67
2022/08/28 03:51:01;;;;;;;9.35;8.95;;;;;;;20.42;100.00;100273.03;5082154;28;20089;-65
2022/08/28 03:53:28;;;;;;;9.40;9.00;;;;;;;20.57;100.00;100280.56;5092798;28;20028;-66
2022/08/28 03:55:55;;;;;;;9.80;9.40;;;;;;;20.94;100.00;100278.94;5081038;28;20063;-66
2022/08/28 03:58:22;;;;;;;9.52;9.13;;;;;;;21.22;100.00;100277.94;5078294;28;20099;-66
2022/08/28 04:00:48;;;;;;;9.85;9.45;;;;;;;21.50;100.00;100285.06;5093477;28;20024;-66
2022/08/28 04:03:14;;;;;;;9.15;8.75;;;;;;;21.74;100.00;100285.63;5084183;28;20062;-66
2022/08/28 04:05:41;;;;;;;9.70;9.30;;;;;;;22.41;100.00;100288.94;5092579;28;20055;-65
2022/08/28 04:08:07;;;;;;;9.60;9.20;;;;;;;22.93;100.00;100285.53;5072856;28;20150;-66
2022/08/28 04:10:34;;;;;;;9.52;9.13;;;;;;;23.74;100.00;100285.06;5087708;28;20026;-66
2022/08/28 04:13:00;;;;;;;9.60;9.20;;;;;;;24.84;100.00;100288.06;5080979;28;20020;-66
2022/08/28 04:15:26;;;;;;;10.10;9.70;;;;;;;24.90;100.00;100289.69;5073428;28;20100;-65
2022/08/28 04:17:52;;;;;;;9.63;9.23;;;;;;;25.69;100.00;100289.91;5081434;28;20475;-66
2022/08/28 04:20:19;;;;;;;10.00;9.60;;;;;;;26.15;100.00;100293.19;5078800;28;20035;-66
2022/08/28 04:22:44;;;;;;;9.73;9.32;;;;;;;26.63;100.00;100299.59;5060681;28;20393;-65
2022/08/28 04:25:10;;;;;;;9.93;9.52;;;;;;;27.68;100.00;100303.31;5079357;28;20051;-65
2022/08/28 04:27:35;;;;;;;10.10;9.70;;;;;;;27.83;99.93;100296.81;5078467;28;20048;-64
2022/08/28 04:30:01;;;;;;;9.70;9.30;;;;;;;28.02;98.77;100314.00;5078597;28;20066;-66
2022/08/28 04:32:27;;;;;;;9.77;9.38;;;;;;;29.12;93.35;100311.59;5073433;28;20040;-65
2022/08/28 04:34:52;;;;;;;10.00;9.60;;;;;;;29.65;90.32;100318.44;5084688;28;20386;-65
2022/08/28 04:37:18;;;;;;;10.00;9.60;;;;;;;30.35;86.91;100323.41;5093383;28;20050;-66
2022/08/28 04:39:44;;;;;;;10.10;9.70;;;;;;;30.49;85.95;100318.66;5093358;28;20028;-66
2022/08/28 04:42:09;;;;;;;9.70;9.30;;;;;;;31.16;81.90;100316.91;5057352;28;20472;-65
2022/08/28 04:44:35;;;;;;;9.88;9.48;;;;;;;31.79;78.61;100312.88;5086346;28;20373;-66
2022/08/28 04:47:00;;;;;;;9.80;9.40;;;;;;;31.72;76.90;100323.50;5085268;28;20059;-66
2022/08/28 04:49:26;;;;;;;9.63;9.23;;;;;;;32.49;73.50;100314.47;5073773;28;20032;-66
2022/08/28 04:51:53;;;;;;;9.85;9.45;;;;;;;32.84;72.03;100325.38;5066221;28;20056;-65
2022/08/28 04:54:19;;;;;;;9.90;9.50;;;;;;;33.33;68.83;100321.09;5079021;28;20031;-66
2022/08/28 04:56:45;;;;;;;9.90;9.50;;;;;;;34.12;63.90;100324.16;5084831;28;20031;-66
2022/08/28 04:59:11;;;;;;;9.98;9.57;;;;;;;33.62;65.26;100327.75;5078693;28;20032;-66
2022/08/28 05:01:38;;;;;;;9.77;9.38;;;;;;;34.20;62.58;100324.06;5092563;28;20042;-66
2022/08/28 05:04:04;;;;;;;9.95;9.55;;;;;;;33.52;61.81;100326.22;5079074;28;20035;-66
2022/08/28 05:06:31;;;;;;;9.88;9.48;;;;;;;35.40;57.44;100334.06;5071827;28;20032;-66
2022/08/28 05:08:58;;;;;;;10.15;9.75;;;;;;;35.36;56.57;100336.72;5080974;28;20061;-66
2022/08/28 05:11:26;;;;;;;10.05;9.65;;;;;;;35.15;55.96;100342.34;5079494;28;20031;-66
2022/08/28 05:13:52;;;;;;;10.00;9.60;;;;;;;35.68;53.47;100336.91;5072090;28;20036;-65
2022/08/28 05:16:19;;;;;;;9.65;9.25;;;;;;;35.87;53.09;100341.81;5072493;28;20031;-65
2022/08/28 05:18:45;;;;;;;9.77;9.38;;;;;;;36.17;51.62;100339.56;5084884;28;20024;-65
2022/08/28 05:21:13;;;;;;;9.85;9.45;;;;;;;35.71;52.54;100337.03;5072236;28;20063;-66
2022/08/28 05:23:39;;;;;;;9.80;9.40;;;;;;;35.98;49.87;100354.00;5078198;28;20025;-66
2022/08/28 05:26:09;;;;;;;9.90;9.50;;;;;;;36.76;48.20;100353.44;5075135;28;20112;-66
2022/08/28 05:28:34;;;;;;;10.25;9.85;;;;;;;36.66;46.96;100350.41;5079474;28;20036;-65
2022/08/28 05:31:17;;;;;;;9.75;9.35;;;;;;;37.24;46.06;100356.19;5078248;28;20031;-66
2022/08/28 05:33:44;;;;;;;9.90;9.50;;;;;;;37.11;46.51;100355.53;5078034;28;20486;-65
2022/08/28 05:36:10;;;;;;;9.70;9.30;;;;;;;37.27;46.07;100355.50;5080968;28;20107;-66
2022/08/28 05:38:36;;;;;;;9.68;9.27;;;;;;;38.01;43.73;100353.66;5089134;28;20073;-66
2022/08/28 05:41:02;;;;;;;9.75;9.35;;;;;;;37.47;43.76;100353.63;5067356;28;20484;-66
2022/08/28 05:43:28;;;;;;;9.40;9.00;;;;;;;37.13;43.91;100350.44;5071627;28;20028;-66
2022/08/28 05:45:59;;;;;;;9.48;9.07;;;;;;;38.33;42.30;100359.03;5081086;28;20047;-66
2022/08/28 05:48:30;;;;;;;9.63;9.23;;;;;;;38.23;41.51;100354.06;5091556;28;20079;-66
2022/08/28 05:51:17;;;;;;;9.68;9.27;;;;;;;38.93;41.37;100349.09;5077598;28;20488;-66
2022/08/28 05:53:43;;;;;;;9.80;9.40;;;;;;;38.54;41.58;100350.34;5077595;28;20032;-66
2022/08/28 05:56:12;;;;;;;9.70;9.30;;;;;;;37.67;42.21;100354.44;5087079;28;20395;-66
2022/08/28 05:58:39;;;;;;;9.50;9.10;;;;;;;38.46;41.56;100352.16;5076148;28;20031;-66
2022/08/28 06:01:07;;;;;;;9.73;9.32;;;;;;;38.93;40.71;100348.28;5071468;28;20115;-66
2022/08/28 06:03:33;;;;;;;9.75;9.35;;;;;;;38.87;41.30;100360.88;5071099;28;20036;-67
2022/08/28 06:05:59;;;;;;;9.55;9.15;;;;;;;39.01;40.28;100363.09;5078081;28;20376;-66
2022/08/28 06:08:26;;;;;;;9.57;9.18;;;;;;;38.98;40.51;100368.19;5071352;28;20104;-66
2022/08/28 06:10:53;;;;;;;10.27;9.82;;;;;;;38.29;41.38;100358.19;5089962;28;20099;-66
2022/08/28 06:13:18;;;;;;;9.85;9.45;;;;;;;38.85;39.99;100363.97;5071092;28;20029;-66
2022/08/28 06:15:45;;;;;;;9.93;9.52;;;;;;;39.23;39.48;100357.53;5074955;28;20038;-66
2022/08/28 06:18:11;;;;;;;9.88;9.48;;;;;;;39.21;39.50;100359.84;5091211;28;20232;-66
2022/08/28 06:20:42;;;;;;;9.93;9.52;;;;;;;39.07;39.73;100359.59;5075247;28;20024;-67
2022/08/28 06:23:16;;;;;;;10.02;9.63;;;;;;;39.43;39.54;100360.97;5071116;28;20029;-66
2022/08/28 06:25:45;;;;;;;9.95;9.55;;;;;;;40.86;37.68;100368.31;5076220;28;20051;-66
2022/08/28 06:28:13;;;;;;;10.05;9.65;;;;;;;39.93;38.04;100366.44;5071089;28;20426;-66
2022/08/28 06:30:40;;;;;;;9.77;9.38;;;;;;;40.19;37.84;100368.41;5071000;28;20108;-66
2022/08/28 06:33:06;;;;;;;10.10;9.70;;;;;;;40.17;37.48;100371.53;5077549;28;20028;-66
2022/08/28 06:35:33;;;;;;;9.90;9.50;;;;;;;40.32;36.85;100367.75;5086627;28;20044;-66
2022/08/28 06:37:59;;;;;;;10.13;9.73;;;;;;;40.45;36.34;100370.25;5070925;28;20444;-66
2022/08/28 06:40:25;;;;;;;9.75;9.35;;;;;;;40.28;35.81;100377.22;5070899;28;20428;-68
2022/08/28 06:42:51;;;;;;;9.73;9.32;;;;;;;39.64;37.16;100366.06;5071203;28;20111;-67
2022/08/28 06:45:17;;;;;;;9.80;9.40;;;;;;;40.96;35.48;100378.75;5067122;28;20676;-66
2022/08/28 06:47:43;;;;;;;9.68;9.27;;;;;;;40.79;35.43;100376.59;5063219;28;20123;-67
2022/08/28 06:50:09;;;;;;;9.90;9.50;;;;;;;41.32;33.92;100365.94;5069828;28;20562;-68
2022/08/28 06:52:35;;;;;;;9.93;9.52;;;;;;;41.59;32.13;100377.66;5069695;28;20427;-66
2022/08/28 06:55:00;;;;;;;9.85;9.45;;;;;;;41.29;31.85;100375.06;5067254;28;20116;-66
2022/08/28 06:57:26;;;;;;;10.13;9.73;;;;;;;40.67;32.66;100369.31;5064816;28;20024;-66
2022/08/28 06:59:58;;;;;;;9.95;9.55;;;;;;;40.74;32.68;100363.81;5084562;28;20016;-66
2022/08/28 07:02:24;;;;;;;10.00;9.60;;;;;;;41.35;31.49;100365.19;5082937;28;20020;-67
2022/08/28 07:04:53;;;;;;;10.00;9.60;;;;;;;41.23;31.55;100364.66;5065446;28;20574;-67
2022/08/28 07:07:19;;;;;;;10.05;9.65;;;;;;;42.27;30.46;100366.84;5091264;28;20058;-66
2022/08/28 07:09:46;;;;;;;10.13;9.73;;;;;;;41.87;30.92;100363.09;5090995;28;20020;-66
2022/08/28 07:12:16;;;;;;;10.10;9.70;;;;;;;42.25;31.19;100358.09;5076094;28;20063;-65
2022/08/28 07:14:42;;;;;;;9.98;9.57;;;;;;;40.92;32.32;100360.44;5070800;28;20036;-65
2022/08/28 07:17:09;;;;;;;10.25;9.85;;;;;;;42.06;30.85;100358.38;5076289;28;20107;-66
2022/08/28 07:19:35;;;;;;;10.48;9.98;;;;;;;42.92;29.85;100357.41;5070845;28;20032;-66
2022/08/28 07:22:00;;;;;;;10.05;9.65;;;;;;;41.81;30.80;100353.53;5078442;28;20111;-66
2022/08/28 07:24:28;;;;;;;9.85;9.45;;;;;;;42.07;30.60;100351.63;5077166;28;20028;-68
2022/08/28 07:26:54;;;;;;;10.20;9.80;;;;;;;42.37;29.97;100352.13;5076349;28;20025;-67
2022/08/28 07:29:20;;;;;;;10.02;9.63;;;;;;;43.07;29.67;100354.63;5084061;28;20492;-66
2022/08/28 07:31:55;;;;;;;9.55;9.15;;;;;;;42.10;30.44;100351.66;5073645;28;20065;-66
2022/08/28 07:34:21;;;;;;;10.10;9.70;;;;;;;42.60;29.83;100351.00;5065805;28;20029;-67
2022/08/28 07:36:50;;;;;;;10.18;9.77;;;;;;;41.26;30.96;100347.97;5082171;28;20498;-66
2022/08/28 07:39:16;;;;;;;10.30;9.90;;;;;;;41.35;31.70;100358.78;5093910;28;20468;-66
2022/08/28 07:41:42;;;;;;;9.75;9.35;;;;;;;42.31;31.33;100359.31;5081030;28;20035;-68
2022/08/28 07:46:56;;;;;;;10.02;9.63;;;;;;;41.12;30.19;100356.22;5070533;28;20110;-66
2022/08/28 07:49:23;;;;;;;10.00;9.60;;;;;;;41.92;29.34;100354.34;5072823;28;20560;-66
2022/08/28 07:51:48;;;;;;;9.70;9.30;;;;;;;42.79;28.85;100359.00;5055788;28;20162;-66
2022/08/28 07:54:14;;;;;;;9.90;9.50;;;;;;;43.13;27.88;100359.41;5073483;28;20111;-66
2022/08/28 07:56:40;;;;;;;10.07;9.68;;;;;;;42.42;28.48;100360.13;5073481;28;20480;-66
2022/08/28 07:59:08;;;;;;;9.80;9.40;;;;;;;42.95;27.84;100355.78;5073438;28;20030;-65
2022/08/28 08:01:42;;;;;;;9.75;9.35;;;;;;;42.25;28.89;100352.50;5082123;28;20024;-65
2022/08/28 08:04:11;;;;;;;9.95;9.55;;;;;;;42.77;27.49;100353.03;5080854;28;20027;-66
2022/08/28 08:06:38;;;;;;;9.98;9.57;;;;;;;42.51;28.32;100354.16;5076178;28;20024;-67
2022/08/28 08:09:05;;;;;;;9.90;9.50;;;;;;;42.82;27.52;100360.97;5093683;28;20028;-66
2022/08/28 08:11:31;;;;;;;10.15;9.75;;;;;;;42.54;28.03;100358.16;5090410;28;20024;-66
2022/08/28 08:13:56;;;;;;;10.02;9.63;;;;;;;42.38;27.46;100356.53;5073374;28;20027;-66
2022/08/28 08:16:24;;;;;;;10.20;9.80;;;;;;;42.50;27.80;100360.91;5090273;28;20430;-67
2022/08/28 08:18:51;;;;;;;9.75;9.35;;;;;;;41.43;29.62;100354.88;5086837;28;20072;-66
2022/08/28 08:21:20;;;;;;;9.45;9.05;;;;;;;38.75;33.27;100353.53;5073602;28;20550;-67
2022/08/28 08:23:47;;;;;;;9.88;9.48;;;;;;;39.93;32.49;100360.91;5079011;28;20024;-66
2022/08/28 08:26:16;;;;;;;10.00;9.60;;;;;;;39.86;32.50;100358.03;5073222;28;20052;-65
2022/08/28 08:28:42;;;;;;;9.82;9.43;;;;;;;39.77;32.45;100352.75;5073548;28;20032;-66
2022/08/28 08:31:11;;;;;;;9.93;9.52;;;;;;;39.29;33.85;100348.88;5092538;28;20467;-66
2022/08/28 08:33:41;;;;;;;9.90;9.50;;;;;;;38.89;33.48;100351.00;5093369;28;20028;-66
2022/08/28 08:36:09;;;;;;;9.55;9.15;;;;;;;38.58;34.07;100346.47;5093622;28;20049;-66
2022/08/28 08:38:35;;;;;;;9.98;9.57;;;;;;;38.43;35.57;100344.59;5092646;28;20123;-65
2022/08/28 08:41:04;;;;;;;9.50;9.10;;;;;;;39.25;34.26;100343.28;5085592;28;20107;-66
2022/08/28 08:43:50;;;;;;;9.73;9.32;;;;;;;38.97;35.35;100347.16;5093114;28;20027;-66
2022/08/28 08:46:19;;;;;;;9.82;9.43;;;;;;;38.51;35.38;100340.78;5092698;28;20103;-66
2022/08/28 08:48:45;;;;;;;10.25;9.85;;;;;;;38.93;35.29;100338.00;5089878;28;20028;-65
2022/08/28 08:51:25;;;;;;;9.88;9.48;;;;;;;37.94;37.05;100338.84;5077888;28;20020;-66
2022/08/28 08:54:04;;;;;;;10.10;9.70;;;;;;;38.61;36.66;100345.72;5091698;28;20027;-66
2022/08/28 08:56:30;;;;;;;10.05;9.65;;;;;;;38.09;37.30;100337.97;5076149;28;20032;-65
2022/08/28 08:58:57;;;;;;;10.00;9.60;;;;;;;37.14;39.25;100334.63;5072315;28;20024;-67
2022/08/28 09:01:41;;;;;;;10.02;9.63;;;;;;;36.67;40.80;100335.41;5072956;28;20025;-67
2022/08/28 09:04:26;;;;;;;9.80;9.40;;;;;;;37.92;38.11;100335.66;5076829;28;20036;-66
2022/08/28 09:07:12;;;;;;;10.02;9.63;;;;;;;38.57;36.02;100328.22;5084524;28;20138;-66
2022/08/28 09:09:45;;;;;;;10.10;9.70;;;;;;;37.99;37.66;100321.94;5075654;28;20111;-66
2022/08/28 09:12:17;;;;;;;10.38;9.90;;;;;;;35.97;41.61;100331.09;5092641;28;20024;-67
2022/08/28 09:14:56;;;;;;;10.02;9.63;;;;;;;38.00;37.75;100337.41;5073783;28;20034;-67
2022/08/28 09:17:30;;;;;;;10.20;9.80;;;;;;;37.00;38.82;100333.13;5084895;28;20032;-65
2022/08/28 09:19:56;;;;;;;9.73;9.32;;;;;;;36.20;40.93;100327.78;5077943;28;20025;-65
2022/08/28 09:22:22;;;;;;;9.80;9.40;;;;;;;35.58;43.46;100329.13;5077218;28;20494;-66
2022/08/28 09:24:47;;;;;;;9.95;9.55;;;;;;;36.67;41.47;100330.69;5078122;28;20052;-66
2022/08/28 09:27:31;;;;;;;9.80;9.40;;;;;;;37.47;39.31;100337.03;5071941;28;20025;-64
2022/08/28 09:30:09;;;;;;;9.80;9.40;;;;;;;37.75;36.53;100334.84;5055490;28;20390;-66
2022/08/28 09:32:34;;;;;;;9.60;9.20;;;;;;;37.95;36.16;100327.41;5083471;28;20032;-66
2022/08/28 09:35:27;;;;;;;9.75;9.35;;;;;;;36.73;36.35;100332.03;5085239;28;20026;-66
2022/08/28 09:37:54;;;;;;;9.80;9.40;;;;;;;36.41;37.88;100333.13;5092023;28;20518;-66
2022/08/28 09:40:24;;;;;;;9.80;9.40;;;;;;;37.18;35.91;100328.03;5091265;28;20031;-65
2022/08/28 09:45:56;;;;;;;9.45;9.05;;;;;;;36.90;36.55;100317.06;5078040;28;20032;-66
2022/08/28 09:48:44;;;;;;;9.88;9.48;;;;;;;36.16;36.49;100326.91;5072655;28;20040;-66
2022/08/28 09:51:29;;;;;;;9.60;9.20;;;;;;;35.88;36.77;100319.38;5091488;28;20032;-66
2022/08/28 09:54:13;;;;;;;9.73;9.32;;;;;;;36.26;36.05;100332.72;5080554;28;20058;-66
2022/08/28 09:56:43;;;;;;;9.40;9.00;;;;;;;36.85;34.79;100317.34;5079280;28;20034;-66
2022/08/28 09:59:17;;;;;;;9.50;9.10;;;;;;;35.85;36.36;100322.84;5079443;28;20046;-66
2022/08/28 10:01:47;;;;;;;9.70;9.30;;;;;;;35.07;37.33;100317.66;5071107;28;20099;-65
2022/08/28 10:04:16;;;;;;;9.88;9.48;;;;;;;34.29;39.29;100313.78;5069803;28;20035;-65
2022/08/28 10:06:55;;;;;;;9.90;9.50;;;;;;;35.21;38.36;100309.03;5071374;28;20072;-65
2022/08/28 10:09:29;;;;;;;9.70;9.30;;;;;;;34.52;39.97;100307.91;5088961;28;20055;-65
2022/08/28 10:12:16;;;;;;;9.88;9.48;;;;;;;34.16;40.55;100308.59;5078641;28;20031;-65
2022/08/28 10:14:42;;;;;;;9.82;9.43;;;;;;;34.88;39.94;100307.94;5071302;28;20020;-65
2022/08/28 10:17:15;;;;;;;9.90;9.50;;;;;;;34.74;41.21;100309.44;5071134;28;20030;-66
2022/08/28 10:19:41;;;;;;;9.88;9.48;;;;;;;34.38;41.62;100301.88;5091452;28;20102;-66
2022/08/28 10:22:30;;;;;;;9.55;9.15;;;;;;;33.94;42.56;100305.06;5077220;28;20144;-65
2022/08/28 10:25:15;;;;;;;9.80;9.40;;;;;;;33.76;44.32;100296.09;5071215;28;20135;-66
2022/08/28 10:28:04;;;;;;;10.38;9.90;;;;;;;34.14;42.58;100306.16;5070685;28;20550;-66
2022/08/28 10:30:37;;;;;;;9.82;9.43;;;;;;;34.44;41.17;100297.78;5057436;28;20411;-65
2022/08/28 10:33:21;;;;;;;9.27;8.88;;;;;;;34.25;42.37;100293.56;5071101;28;20035;-65
2022/08/28 10:35:57;;;;;;;9.73;9.32;;;;;;;34.01;43.54;100296.25;5084532;28;20383;-66
2022/08/28 10:38:40;;;;;;;9.27;8.88;;;;;;;33.53;43.78;100294.81;5081279;28;20515;-66
2022/08/28 10:41:28;;;;;;;9.27;8.87;;;;;;;33.48;46.14;100298.56;5075020;28;20194;-66
2022/08/28 10:43:58;;;;;;;9.50;9.10;;;;;;;33.79;44.59;100283.63;5070041;28;20044;-65
2022/08/28 10:46:37;;;;;;;9.95;9.55;;;;;;;34.39;42.88;100293.28;5082888;28;20031;-63
2022/08/28 10:49:07;;;;;;;9.40;9.00;;;;;;;34.17;42.25;100282.66;5071668;28;20104;-66
2022/08/28 10:51:36;;;;;;;9.52;9.13;;;;;;;33.94;43.28;100291.28;5091221;28;20028;-65
2022/08/28 10:54:28;;;;;;;9.55;9.15;;;;;;;33.74;44.10;100281.06;5090756;28;20031;-67
2022/08/28 10:57:31;;;;;;;9.50;9.10;;;;;;;33.97;44.57;100284.28;5062518;28;20044;-66
2022/08/28 10:59:59;;;;;;;9.55;9.15;;;;;;;33.99;43.53;100282.00;5058440;28;20024;-66
2022/08/28 11:02:26;;;;;;;9.75;9.35;;;;;;;34.07;42.88;100278.34;5060741;28;20029;-66
2022/08/28 11:04:54;;;;;;;9.90;9.50;;;;;;;34.08;43.30;100278.03;5074980;28;20024;-66
2022/08/28 11:07:29;;;;;;;9.52;9.13;;;;;;;34.08;42.24;100279.97;5074828;28;20060;-65
2022/08/28 11:10:16;;;;;;;9.63;9.23;;;;;;;34.36;41.55;100277.41;5088157;28;20475;-65
2022/08/28 11:12:42;;;;;;;9.65;9.25;;;;;;;33.99;42.13;100287.50;5073918;28;20107;-66
2022/08/28 11:15:26;;;;;;;9.80;9.40;;;;;;;33.74;44.21;100276.38;5088209;28;20110;-66
2022/08/28 11:17:54;;;;;;;9.55;9.15;;;;;;;32.60;46.11;100277.28;5088047;28;20027;-67
2022/08/28 11:20:30;;;;;;;9.70;9.30;;;;;;;33.84;44.23;100274.34;5094363;28;20039;-67
2022/08/28 11:23:16;;;;;;;9.82;9.43;;;;;;;33.90;43.58;100273.03;5088413;28;20038;-66
2022/08/28 11:25:59;;;;;;;9.90;9.50;;;;;;;34.33;41.85;100270.66;5074321;28;20115;-65
2022/08/28 11:28:24;;;;;;;9.63;9.23;;;;;;;34.46;41.08;100268.75;5072005;28;20109;-65
2022/08/28 11:31:05;;;;;;;10.32;9.90;;;;;;;34.53;41.24;100273.72;5075691;28;20653;-67
2022/08/28 11:33:38;;;;;;;9.65;9.25;;;;;;;34.82;40.66;100275.47;5070568;28;20033;-65
2022/08/28 11:36:31;;;;;;;9.50;9.10;;;;;;;34.71;40.91;100275.09;5084884;28;20128;-65
2022/08/28 11:38:56;;;;;;;9.77;9.38;;;;;;;34.60;40.57;100271.19;5055897;28;20039;-66